CheckWX is a tool to help pilots better visualize weather data.  It is not intended as a substitute for an official pre-flight weather briefing.

17:17:23 UTC

KHRO METAR
Boone County Airport
Harrison, Arkansas, USA
Current

24 mins ago

KHRO 181653Z AUTO 27011G17KT 10SM FEW035 32/23 A2997 RMK AO2 SLP130 T03170233
Observed
Aug-18 @ 16:53 UTC
Wind
  • 270° at 11 KTS
  • Gusting to 17 KTS
Visibility
10 SM
Flight Rules
VFR
Cloud Levels
  • Few at 3,500' AGL
Temperature
32°C / 90°F
Dewpoint
23°C / 73°F
Heat Index
37°C / 99°F
Humidity
59%
Altimeter
29.97" Hg
Pressure
1014.92 hPa
Previous

1 hour ago

KHRO 181553Z AUTO 19007KT 10SM FEW031 31/24 A2998 RMK AO2 SLP135 T03060239
Observed
Aug-18 @ 15:53 UTC
Wind
  • 190° at 7 KTS
Visibility
10 SM
Flight Rules
VFR
Cloud Levels
  • Few at 3,100' AGL
Temperature
31°C / 88°F
Dewpoint
24°C / 75°F
Heat Index
37°C / 98°F
Humidity
66%
Altimeter
29.98" Hg
Pressure
1015.22 hPa
Previous

2 hours ago

KHRO 181453Z AUTO 24005KT 10SM CLR 28/22 A2997 RMK AO2 SLP130 T02780222 51006
Observed
Aug-18 @ 14:53 UTC
Wind
  • 240° at 5 KTS
Visibility
10 SM
Flight Rules
VFR
Cloud Levels
  • Clear skies
Temperature
28°C / 82°F
Dewpoint
22°C / 72°F
Heat Index
30°C / 86°F
Humidity
70%
Altimeter
29.97" Hg
Pressure
1014.92 hPa